Kapaa, HI

9:58 AM HST on September 16, 2014 (GMT -1000)
Kalaeloa (John Rodgers Field) | Change Station
CLOSE
Current Station
Airport
Location: Kalaeloa,
Elevation: 49 ft
Nearby Weather Stations
Active Advisory: High Surf Advisory Active Notice: Record Report

Elev 49 ft 21.31 °N, 158.07 °W | Updated 5 minutes ago

Partly Cloudy
Partly Cloudy
88 °F
Feels Like 92 °F
N
8
Wind Variable Wind from East

Today
High -- | Low -- °F
--% Chance of Precip.
Yesterday
High -- | Low -- °F
Precip. -- in
6:24 AM 6:39 PM
Last Quarter, 43% visible
Pressure 30.00 in
Visibility 10.0 miles
Clouds Few 3700 ft
Heat Index 92 °F
Dew Point 69 °F
Humidity 53%
Rainfall 0.00 in
Snow Depth Not available.
UV 7 out of 12
Pollen Not available.
Air Quality Not available.
Flu Activity Not available.
METAR PHJR 161953Z 09007KT 060V120 10SM FEW037 31/21 A2998 RMK AO2 SLP157 T03110206

More Conditions Fewer Conditions

Pressure 30.00 in
Visibility 10.0 miles
Clouds Few 3700 ft
Heat Index 92 °F
Dew Point 69 °F
Humidity 53%
Rainfall 0.00 in
Snow Depth Not available.
UV 7 out of 12
Pollen Not available.
Air Quality Not available.
Flu Activity Not available.
METAR PHJR 161953Z 09007KT 060V120 10SM FEW037 31/21 A2998 RMK AO2 SLP157 T03110206

More Conditions Fewer Conditions

10-Day Weather Forecast

Almanac

Astronomy

Sep. 16, 2014 Rise Set
Actual Time 6:24 AM HST 6:39 PM HST
Civil Twilight 6:02 AM HST 7:01 PM HST
Nautical Twilight 5:36 AM HST 7:27 PM HST
Astronomical Twilight 5:09 AM HST 7:53 PM HST
Moon 12:14 AM HST 1:42 PM HST
Length of Visible Light 12h 59m
Length of Day
12h 14m
Tomorrow will be 1m 15s shorter.
Last Quarter, 43% of the Moon is Illuminated
Today
Last Quarter
Sep 24
New
Oct 1
First Quarter
Oct 8
Full
Oct 15
Last Quarter

Today's Extremes

State Highs State Lows

Community

WunderPhotos

Upload Photos

1,753,860 photos uploaded!

Nearby

Snow Depth

Station Depth Elevation
No new snow has been reported.

Earthquake Activity

City Distance Mag. Time & Date
No recent earthquake activity has been reported nearby.
Minimum magnitude displayed is 2.5.

Coastal Water Temperatures

Place Temperature
No Stations Reporting

Nearby Weather Stations